Time;durP1;ratioP1;P1;durP2;ratioP2;P2;SDS_P1;SDS_P2;PMS_P1;PMS_P2;Temp;Humidity;BMP_temperature;BMP_pressure;BME280_temperature;BME280_humidity;BME280_pressure;Samples;Min_cycle;Max_cycle;Signal;HPM_P1;HPM_P2
2022/06/01 00:01:10;;;;;;;;;;;;;;;10.23;72.90;97219.13;6246171;28;19921;-69
2022/06/01 00:04:13;;;;;;;;;;;;;;;10.40;72.19;97220.78;6246166;28;19921;-68
2022/06/01 00:07:19;;;;;;;;;;;;;;;10.61;71.83;97223.94;6246192;28;19921;-67
2022/06/01 00:10:20;;;;;;;;;;;;;;;10.63;71.20;97219.44;6245859;28;19921;-69
2022/06/01 00:13:21;;;;;;;;;;;;;;;10.67;71.42;97234.13;6245915;28;20522;-68
2022/06/01 00:16:23;;;;;;;;;;;;;;;10.56;71.20;97229.50;6245561;28;20300;-68
2022/06/01 00:19:24;;;;;;;;;;;;;;;10.45;71.30;97239.78;6244349;28;19921;-68
2022/06/01 00:22:25;;;;;;;;;;;;;;;10.34;71.57;97232.53;6245753;28;19948;-67
2022/06/01 00:25:29;;;;;;;;;;;;;;;10.30;71.72;97236.28;6245927;28;19917;-67
2022/06/01 00:28:34;;;;;;;;;;;;;;;10.26;71.82;97232.09;6245759;28;20323;-67
2022/06/01 00:31:39;;;;;;;;;;;;;;;10.24;71.70;97235.75;6250054;28;19920;-67
2022/06/01 00:34:44;;;;;;;;;;;;;;;10.24;71.74;97241.00;6250790;28;19921;-68
2022/06/01 00:37:45;;;;;;;;;;;;;;;10.24;71.69;97241.84;6250802;28;19921;-67
2022/06/01 00:40:51;;;;;;;;;;;;;;;10.25;71.61;97247.97;6250356;28;19921;-68
2022/06/01 00:43:52;;;;;;;;;;;;;;;10.22;71.80;97248.13;6250823;28;20272;-67
2022/06/01 00:46:56;;;;;;;;;;;;;;;10.20;71.88;97250.00;6250478;28;19921;-68
2022/06/01 00:50:15;;;;;;;;;;;;;;;10.18;71.97;97251.88;6250695;28;19920;-68
2022/06/01 00:53:30;;;;;;;;;;;;;;;10.17;72.03;97256.28;6250288;28;19921;-68
2022/06/01 00:56:34;;;;;;;;;;;;;;;10.18;71.96;97257.97;6250907;28;19996;-67
2022/06/01 00:59:38;;;;;;;;;;;;;;;10.25;71.64;97250.59;6250017;28;20293;-67
2022/06/01 01:02:43;;;;;;;;;;;;;;;10.28;71.33;97253.94;6249771;28;19920;-66
2022/06/01 01:05:47;;;;;;;;;;;;;;;10.33;71.19;97262.41;6249631;28;19921;-67
2022/06/01 01:08:48;;;;;;;;;;;;;;;10.38;70.99;97259.50;6249777;28;19925;-68
2022/06/01 01:11:54;;;;;;;;;;;;;;;10.43;70.64;97256.59;6250140;28;20376;-68
2022/06/01 01:15:01;;;;;;;;;;;;;;;10.47;70.60;97268.63;6249724;28;20299;-68
2022/06/01 01:18:08;;;;;;;;;;;;;;;10.51;70.68;97271.00;6249286;28;19921;-68
2022/06/01 01:21:32;;;;;;;;;;;;;;;10.54;70.90;97278.72;6249679;28;19925;-67
2022/06/01 01:24:37;;;;;;;;;;;;;;;10.60;70.10;97280.16;6249706;28;19928;-67
2022/06/01 01:27:42;;;;;;;;;;;;;;;10.67;70.05;97280.63;6249457;28;19928;-68
2022/06/01 01:30:43;;;;;;;;;;;;;;;10.71;70.04;97283.00;6249575;28;20018;-67
2022/06/01 01:33:48;;;;;;;;;;;;;;;10.79;69.69;97286.03;6249466;28;19921;-69
2022/06/01 01:36:54;;;;;;;;;;;;;;;10.87;69.58;97287.34;6249318;28;20400;-68
2022/06/01 01:39:57;;;;;;;;;;;;;;;10.89;69.81;97296.84;6249035;28;20297;-68
2022/06/01 01:43:01;;;;;;;;;;;;;;;10.99;69.42;97291.91;6248563;28;20405;-68
2022/06/01 01:46:06;;;;;;;;;;;;;;;11.04;69.56;97295.09;6249183;28;19921;-68
2022/06/01 01:49:09;;;;;;;;;;;;;;;11.12;69.56;97292.00;6248968;28;19921;-68
2022/06/01 01:52:15;;;;;;;;;;;;;;;11.19;69.19;97291.53;6248915;28;19944;-67
2022/06/01 01:55:34;;;;;;;;;;;;;;;11.29;69.13;97296.25;6249474;28;20300;-68
2022/06/01 01:58:41;;;;;;;;;;;;;;;11.36;69.04;97300.19;6249266;28;20331;-67
2022/06/01 02:01:46;;;;;;;;;;;;;;;11.42;68.93;97305.09;6248854;28;19921;-68
2022/06/01 02:08:33;;;;;;;;;;;;;;;11.60;68.54;97309.22;6248599;28;19921;-68
2022/06/01 02:15:11;;;;;;;;;;;;;;;11.94;68.05;97312.41;6280465;28;20320;-67
2022/06/01 02:18:19;;;;;;;;;;;;;;;12.07;67.72;97313.34;6248278;28;19920;-67
2022/06/01 02:21:25;;;;;;;;;;;;;;;12.13;67.26;97318.22;6248232;28;19921;-67
2022/06/01 02:24:26;;;;;;;;;;;;;;;12.33;66.73;97318.72;6248495;28;19928;-68
2022/06/01 02:27:29;;;;;;;;;;;;;;;12.39;66.40;97326.25;6248179;28;20452;-68
2022/06/01 02:30:34;;;;;;;;;;;;;;;12.47;66.02;97329.22;6248126;28;20323;-67
2022/06/01 02:33:39;;;;;;;;;;;;;;;12.59;65.66;97327.56;6248571;28;20459;-67
2022/06/01 02:36:43;;;;;;;;;;;;;;;12.70;64.90;97337.44;6248269;28;19920;-67
2022/06/01 02:39:52;;;;;;;;;;;;;;;12.69;65.02;97335.75;6247568;28;19921;-68
2022/06/01 02:42:53;;;;;;;;;;;;;;;12.80;64.54;97333.25;6247571;28;19927;-69
2022/06/01 02:45:57;;;;;;;;;;;;;;;12.85;64.25;97347.00;6247640;28;19921;-67
2022/06/01 02:49:03;;;;;;;;;;;;;;;12.88;64.03;97349.44;6247596;28;19921;-67
2022/06/01 02:52:07;;;;;;;;;;;;;;;12.99;63.67;97349.56;6247443;28;20007;-68
2022/06/01 02:55:08;;;;;;;;;;;;;;;13.10;63.02;97342.69;6246646;28;19949;-67
2022/06/01 02:58:13;;;;;;;;;;;;;;;13.22;62.54;97355.09;6247749;28;19921;-68
2022/06/01 03:01:14;;;;;;;;;;;;;;;13.36;62.12;97352.38;6246854;28;19943;-68
2022/06/01 03:04:17;;;;;;;;;;;;;;;13.52;61.11;97359.25;6246949;28;20392;-69
2022/06/01 03:07:21;;;;;;;;;;;;;;;13.64;60.74;97353.09;6246889;28;20443;-68
2022/06/01 03:10:23;;;;;;;;;;;;;;;13.80;60.11;97360.81;6246988;28;19921;-68
2022/06/01 03:13:28;;;;;;;;;;;;;;;13.98;59.57;97363.97;6246535;28;19925;-67
2022/06/01 03:16:29;;;;;;;;;;;;;;;14.20;58.97;97365.94;6246677;28;19942;-68
2022/06/01 03:19:31;;;;;;;;;;;;;;;14.50;57.57;97362.88;6246910;28;19961;-69
2022/06/01 03:22:38;;;;;;;;;;;;;;;14.62;57.20;97364.66;6246614;28;20395;-69
2022/06/01 03:25:42;;;;;;;;;;;;;;;14.86;55.75;97366.44;6246749;28;19921;-68
2022/06/01 03:28:43;;;;;;;;;;;;;;;14.91;55.89;97364.31;6246557;28;20392;-68
2022/06/01 03:31:50;;;;;;;;;;;;;;;15.12;55.08;97367.19;6246358;28;19943;-68
2022/06/01 03:34:51;;;;;;;;;;;;;;;15.32;54.05;97369.16;6246435;28;19921;-68
2022/06/01 03:37:52;;;;;;;;;;;;;;;15.41;53.87;97375.56;6246003;28;20253;-67
2022/06/01 03:40:55;;;;;;;;;;;;;;;15.49;53.46;97370.50;6246450;28;19920;-67
2022/06/01 03:47:20;;;;;;;;;;;;;;;15.57;53.33;97383.16;6246072;28;19963;-68
2022/06/01 03:50:25;;;;;;;;;;;;;;;15.60;53.21;97377.66;6246104;28;20256;-67
2022/06/01 03:53:29;;;;;;;;;;;;;;;15.60;52.44;97378.50;6246107;28;19921;-68
2022/06/01 03:56:30;;;;;;;;;;;;;;;15.60;51.70;97373.19;6245686;28;20289;-68
2022/06/01 03:59:35;;;;;;;;;;;;;;;15.50;52.24;97372.19;6245879;28;19921;-67
2022/06/01 04:02:37;;;;;;;;;;;;;;;15.66;51.18;97374.53;6246906;28;19921;-68
2022/06/01 04:05:38;;;;;;;;;;;;;;;15.60;50.88;97373.19;6245437;28;20400;-67
2022/06/01 04:08:41;;;;;;;;;;;;;;;15.56;51.34;97379.69;6245854;28;20388;-68
2022/06/01 04:11:42;;;;;;;;;;;;;;;15.74;50.46;97377.47;6245874;28;19928;-68
2022/06/01 04:14:46;;;;;;;;;;;;;;;15.73;50.37;97378.41;6246007;28;20392;-67
2022/06/01 04:17:47;;;;;;;;;;;;;;;15.69;50.45;97376.97;6245306;28;19921;-68
2022/06/01 04:20:51;;;;;;;;;;;;;;;15.75;50.00;97383.59;6245631;28;20011;-68
2022/06/01 04:23:58;;;;;;;;;;;;;;;15.74;50.18;97389.84;6245781;28;19921;-67
2022/06/01 04:27:00;;;;;;;;;;;;;;;15.70;50.40;97387.44;6228014;28;19921;-68
2022/06/01 04:30:01;;;;;;;;;;;;;;;15.84;50.00;97380.22;6245655;28;19921;-68
2022/06/01 04:33:03;;;;;;;;;;;;;;;15.92;49.68;97388.44;6245612;28;19921;-67
2022/06/01 04:36:04;;;;;;;;;;;;;;;16.02;49.72;97384.09;6244254;28;19921;-68
2022/06/01 04:39:07;;;;;;;;;;;;;;;16.47;48.90;97384.03;6245344;28;20406;-68
2022/06/01 04:42:08;;;;;;;;;;;;;;;18.64;43.33;97385.19;6245240;28;19921;-68
2022/06/01 04:45:15;;;;;;;;;;;;;;;21.52;37.84;97389.88;6245207;28;20308;-68
2022/06/01 04:48:19;;;;;;;;;;;;;;;24.19;33.54;97404.38;6245254;28;19921;-67
2022/06/01 04:51:20;;;;;;;;;;;;;;;26.52;31.90;97407.84;6245035;28;19920;-67
2022/06/01 04:54:23;;;;;;;;;;;;;;;27.76;31.93;97406.75;6245348;28;19921;-68
2022/06/01 04:57:24;;;;;;;;;;;;;;;30.53;28.31;97414.34;6245371;28;19921;-67
2022/06/01 05:00:28;;;;;;;;;;;;;;;32.86;23.08;97415.44;6243725;28;19927;-68
2022/06/01 05:03:29;;;;;;;;;;;;;;;34.64;24.47;97421.97;6244065;28;20323;-68
2022/06/01 05:06:31;;;;;;;;;;;;;;;36.20;21.78;97415.38;6245254;28;19921;-67
2022/06/01 05:09:32;;;;;;;;;;;;;;;36.63;20.83;97419.34;6245387;28;19929;-68
2022/06/01 05:12:36;;;;;;;;;;;;;;;36.67;18.57;97418.81;6245385;28;19928;-68
2022/06/01 05:15:56;;;;;;;;;;;;;;;32.94;21.91;97406.13;6244805;28;19921;-68
2022/06/01 05:19:00;;;;;;;;;;;;;;;30.48;23.79;97399.75;6249830;28;19921;-67
2022/06/01 05:22:06;;;;;;;;;;;;;;;31.05;22.55;97392.66;6249231;28;19921;-69
2022/06/01 05:25:10;;;;;;;;;;;;;;;29.95;22.88;97396.06;6249436;28;19921;-69
2022/06/01 05:28:12;;;;;;;;;;;;;;;29.01;23.57;97391.47;6249522;28;19921;-67
2022/06/01 05:31:19;;;;;;;;;;;;;;;28.39;24.32;97395.13;6249609;28;19921;-68
2022/06/01 05:34:22;;;;;;;;;;;;;;;29.75;21.81;97390.63;6249241;28;20423;-68
2022/06/01 05:37:23;;;;;;;;;;;;;;;31.92;20.15;97390.22;6249255;28;20470;-66
2022/06/01 05:40:30;;;;;;;;;;;;;;;34.89;17.53;97387.22;6249192;28;20312;-67
2022/06/01 05:43:34;;;;;;;;;;;;;;;37.68;15.46;97407.38;6247882;28;20317;-67
2022/06/01 05:46:37;;;;;;;;;;;;;;;36.52;16.84;97401.06;6248997;28;20399;-68
2022/06/01 05:49:39;;;;;;;;;;;;;;;34.20;16.62;97402.41;6248993;28;19925;-68
2022/06/01 05:52:43;;;;;;;;;;;;;;;36.51;14.74;97404.84;6248669;28;19921;-66
2022/06/01 05:55:47;;;;;;;;;;;;;;;39.21;12.76;97408.41;6248666;28;19921;-68
2022/06/01 05:58:50;;;;;;;;;;;;;;;40.88;12.19;97407.88;6248806;28;20304;-66
2022/06/01 06:01:53;;;;;;;;;;;;;;;40.33;10.77;97402.19;6248614;28;20002;-67
2022/06/01 06:04:57;;;;;;;;;;;;;;;39.99;11.33;97396.41;6248554;28;19921;-67
2022/06/01 06:07:59;;;;;;;;;;;;;;;41.43;10.98;97403.19;6248617;28;19928;-67
2022/06/01 06:11:06;;;;;;;;;;;;;;;43.10;10.37;97409.41;6248388;28;20296;-68
2022/06/01 06:14:08;;;;;;;;;;;;;;;44.41;9.30;97400.50;6246907;28;19928;-67
2022/06/01 06:17:12;;;;;;;;;;;;;;;46.14;9.17;97399.50;6248294;28;19921;-68
2022/06/01 06:20:15;;;;;;;;;;;;;;;47.14;9.19;97400.16;6248386;28;20015;-69
2022/06/01 06:23:17;;;;;;;;;;;;;;;48.33;8.13;97396.06;6248213;28;19944;-68
2022/06/01 06:26:20;;;;;;;;;;;;;;;49.30;8.69;97395.31;6248071;28;20315;-67
2022/06/01 06:29:22;;;;;;;;;;;;;;;50.71;7.81;97397.25;6248086;28;19921;-67
2022/06/01 06:32:28;;;;;;;;;;;;;;;51.75;5.68;97394.09;6247945;28;19987;-67
2022/06/01 06:35:32;;;;;;;;;;;;;;;52.51;7.69;97393.00;6248295;28;19927;-67
2022/06/01 06:38:39;;;;;;;;;;;;;;;53.10;5.59;97396.09;6247752;28;19960;-67
2022/06/01 06:41:42;;;;;;;;;;;;;;;52.46;4.80;97389.66;6247676;28;19920;-67
2022/06/01 06:44:50;;;;;;;;;;;;;;;52.40;6.80;97391.91;6247496;28;19932;-66
2022/06/01 06:47:56;;;;;;;;;;;;;;;53.22;5.57;97386.72;6247327;28;19920;-66
2022/06/01 06:51:01;;;;;;;;;;;;;;;53.46;5.25;97391.31;6246902;28;20389;-66
2022/06/01 06:54:02;;;;;;;;;;;;;;;53.53;4.56;97377.38;6247535;28;20031;-67
2022/06/01 06:57:06;;;;;;;;;;;;;;;53.78;4.59;97380.72;6247121;28;19921;-66
2022/06/01 07:00:12;;;;;;;;;;;;;;;53.18;5.11;97373.38;6246968;28;20396;-68
2022/06/01 07:03:13;;;;;;;;;;;;;;;52.90;4.18;97376.34;6247122;28;20432;-67
2022/06/01 07:06:19;;;;;;;;;;;;;;;53.61;5.60;97376.34;6247069;28;19921;-67
2022/06/01 07:09:24;;;;;;;;;;;;;;;54.12;4.83;97373.38;6247153;28;20311;-68
2022/06/01 07:12:25;;;;;;;;;;;;;;;54.02;3.92;97385.22;6246795;28;19924;-67
2022/06/01 07:15:31;;;;;;;;;;;;;;;53.16;4.49;97377.75;6247138;28;20455;-66
2022/06/01 07:18:33;;;;;;;;;;;;;;;53.53;4.84;97375.38;6247006;28;20323;-67
2022/06/01 07:21:41;;;;;;;;;;;;;;;53.95;4.32;97362.56;6246731;28;20023;-67
2022/06/01 07:24:45;;;;;;;;;;;;;;;52.16;5.28;97364.00;6246278;28;20344;-68
2022/06/01 07:27:49;;;;;;;;;;;;;;;47.69;7.21;97339.03;6246305;28;19921;-67
2022/06/01 07:30:50;;;;;;;;;;;;;;;44.92;7.90;97344.00;6246745;28;19921;-68
2022/06/01 07:33:54;;;;;;;;;;;;;;;42.82;7.99;97328.94;6246552;28;19976;-67
2022/06/01 07:43:05;;;;;;;;;;;;;;;41.98;8.45;97325.69;6246264;28;20019;-67
2022/06/01 07:43:43;;;;;;;;;;;;;;;46.58;6.40;97338.53;6245951;28;20015;-68
2022/06/01 07:46:49;;;;;;;;;;;;;;;44.27;7.68;97328.34;6245905;28;19921;-67
2022/06/01 07:49:52;;;;;;;;;;;;;;;40.14;9.06;97316.50;6246449;28;20445;-68
2022/06/01 07:52:53;;;;;;;;;;;;;;;36.86;10.31;97302.25;6245595;28;19928;-69
2022/06/01 07:55:57;;;;;;;;;;;;;;;36.18;10.93;97298.94;6245723;28;19920;-68
2022/06/01 07:59:05;;;;;;;;;;;;;;;39.38;9.12;97302.72;6246307;28;20296;-67
2022/06/01 08:02:10;;;;;;;;;;;;;;;42.29;7.77;97309.59;6246350;28;19924;-67
2022/06/01 08:05:15;;;;;;;;;;;;;;;45.54;6.78;97315.66;6245994;28;19921;-67
2022/06/01 08:08:16;;;;;;;;;;;;;;;48.56;5.92;97316.50;6246096;28;19921;-67
2022/06/01 08:13:06;;;;;;;;;;;;;;;50.39;5.05;97328.13;6245800;28;19925;-67
2022/06/01 08:14:43;;;;;;;;;;;;;;;48.50;6.07;97323.41;6246067;28;19927;-68
2022/06/01 08:17:48;;;;;;;;;;;;;;;47.07;7.19;97317.03;6245679;28;19920;-68
2022/06/01 08:20:53;;;;;;;;;;;;;;;45.85;6.98;97316.53;6245622;28;19921;-67
2022/06/01 08:23:56;;;;;;;;;;;;;;;44.67;6.68;97314.78;6245969;28;19959;-67
2022/06/01 08:26:57;;;;;;;;;;;;;;;41.27;8.18;97299.47;6245590;28;19921;-67
2022/06/01 08:30:01;;;;;;;;;;;;;;;38.32;9.67;97289.19;6245665;28;19970;-67
2022/06/01 08:33:05;;;;;;;;;;;;;;;37.53;10.58;97285.34;6245318;28;19921;-67
2022/06/01 08:36:06;;;;;;;;;;;;;;;40.11;8.94;97291.41;6244348;28;19928;-67
2022/06/01 08:39:09;;;;;;;;;;;;;;;43.36;7.22;97298.28;6245478;28;19920;-67
2022/06/01 08:42:13;;;;;;;;;;;;;;;45.62;6.04;97309.34;6245718;28;20015;-67
2022/06/01 08:45:14;;;;;;;;;;;;;;;47.15;5.89;97302.31;6245118;28;20424;-68
2022/06/01 08:48:22;;;;;;;;;;;;;;;47.95;5.74;97304.72;6245364;28;19928;-67
2022/06/01 08:51:27;;;;;;;;;;;;;;;46.21;6.32;97300.88;6247364;28;20311;-67
2022/06/01 08:54:28;;;;;;;;;;;;;;;42.54;7.95;97283.63;6250225;28;19928;-68
2022/06/01 08:57:39;;;;;;;;;;;;;;;40.34;8.83;97281.69;6250205;28;19935;-67
2022/06/01 09:00:45;;;;;;;;;;;;;;;40.70;8.39;97274.13;6249835;28;20387;-68
2022/06/01 09:04:01;;;;;;;;;;;;;;;39.15;9.25;97271.84;6250041;28;19925;-67
2022/06/01 09:07:17;;;;;;;;;;;;;;;40.01;8.95;97275.72;6249782;28;19925;-67
2022/06/01 09:10:36;;;;;;;;;;;;;;;42.14;7.87;97279.38;6249742;28;19921;-67
2022/06/01 09:13:43;;;;;;;;;;;;;;;42.47;7.65;97272.09;6248756;28;19921;-68
2022/06/01 09:16:49;;;;;;;;;;;;;;;43.27;7.15;97278.75;6249849;28;19920;-67
2022/06/01 09:23:18;;;;;;;;;;;;;;;40.09;9.09;97260.56;6249860;28;19920;-68
2022/06/01 09:26:23;;;;;;;;;;;;;;;37.50;10.60;97252.13;6249435;28;19928;-68
2022/06/01 09:29:25;;;;;;;;;;;;;;;36.95;11.10;97256.81;6248369;28;19921;-67
2022/06/01 09:32:33;;;;;;;;;;;;;;;36.63;10.67;97254.84;6249486;28;20335;-67
2022/06/01 09:35:37;;;;;;;;;;;;;;;37.90;10.18;97254.28;6249569;28;19921;-67
2022/06/01 09:38:41;;;;;;;;;;;;;;;39.54;8.89;97252.06;6249303;28;19921;-67
2022/06/01 09:41:42;;;;;;;;;;;;;;;40.00;8.75;97253.94;6249212;28;19921;-67
2022/06/01 09:44:46;;;;;;;;;;;;;;;39.14;9.02;97253.69;6247536;28;19921;-67
2022/06/01 09:47:50;;;;;;;;;;;;;;;38.00;9.75;97250.00;6248963;28;20035;-68
2022/06/01 09:51:03;;;;;;;;;;;;;;;38.15;9.43;97248.16;6247633;28;19921;-67
2022/06/01 09:54:24;;;;;;;;;;;;;;;38.99;9.12;97251.78;6248940;28;19928;-67
2022/06/01 09:57:28;;;;;;;;;;;;;;;38.74;9.56;97255.25;6248410;28;19921;-67
2022/06/01 10:07:24;;;;;;;;;;;;;;;40.52;8.41;97250.75;6248055;28;19921;-67
2022/06/01 10:10:27;;;;;;;;;;;;;;;41.08;8.16;97257.06;6248496;28;19921;-67
2022/06/01 10:13:34;;;;;;;;;;;;;;;41.20;8.25;97254.81;6248266;28;20312;-68
2022/06/01 10:16:38;;;;;;;;;;;;;;;39.58;8.67;97253.19;6248048;28;19921;-67
2022/06/01 10:19:57;;;;;;;;;;;;;;;36.59;10.26;97248.19;6247935;28;19921;-66
2022/06/01 10:23:05;;;;;;;;;;;;;;;33.82;12.31;97235.47;6248232;28;20018;-68
2022/06/01 10:26:18;;;;;;;;;;;;;;;34.87;11.39;97242.56;6247612;28;19927;-67
2022/06/01 10:29:39;;;;;;;;;;;;;;;35.22;10.98;97234.19;6247892;28;19921;-67
2022/06/01 10:32:48;;;;;;;;;;;;;;;35.09;10.85;97239.97;6247825;28;19920;-67
2022/06/01 10:35:55;;;;;;;;;;;;;;;35.62;10.24;97238.69;6248037;28;19925;-67
2022/06/01 10:39:01;;;;;;;;;;;;;;;34.67;11.04;97232.09;6247920;28;19921;-68
2022/06/01 10:42:16;;;;;;;;;;;;;;;34.39;11.33;97247.38;6247330;28;19920;-68
2022/06/01 10:45:21;;;;;;;;;;;;;;;35.07;11.20;97242.13;6247613;28;19921;-67
2022/06/01 10:48:25;;;;;;;;;;;;;;;35.34;10.51;97236.00;6247424;28;19921;-67
2022/06/01 10:51:32;;;;;;;;;;;;;;;34.43;11.31;97248.56;6247502;28;20040;-67
2022/06/01 10:54:41;;;;;;;;;;;;;;;34.75;11.14;97241.81;6247675;28;20342;-68
2022/06/01 10:57:50;;;;;;;;;;;;;;;35.96;10.57;97249.56;6247266;28;19921;-68
2022/06/01 11:00:56;;;;;;;;;;;;;;;36.60;9.94;97241.66;6247120;28;19921;-68
2022/06/01 11:04:06;;;;;;;;;;;;;;;36.92;10.17;97251.84;6247006;28;19927;-67
2022/06/01 11:07:22;;;;;;;;;;;;;;;36.48;10.42;97246.41;6246946;28;19921;-66
2022/06/01 11:10:46;;;;;;;;;;;;;;;34.17;11.62;97244.47;6246743;28;20312;-66
2022/06/01 11:14:04;;;;;;;;;;;;;;;32.29;12.73;97243.25;6246101;28;20288;-67
2022/06/01 11:17:08;;;;;;;;;;;;;;;31.52;13.74;97243.66;6246995;28;19920;-67
2022/06/01 11:20:22;;;;;;;;;;;;;;;31.01;13.58;97231.91;6246891;28;19964;-69
2022/06/01 11:23:45;;;;;;;;;;;;;;;30.88;13.92;97237.44;6246794;28;19924;-69
2022/06/01 11:26:46;;;;;;;;;;;;;;;31.63;13.40;97234.75;6246491;28;19921;-69
2022/06/01 11:29:57;;;;;;;;;;;;;;;32.07;13.41;97240.97;6245255;28;19972;-68
2022/06/01 11:33:01;;;;;;;;;;;;;;;32.34;12.75;97237.94;6246516;28;19920;-67
2022/06/01 11:36:13;;;;;;;;;;;;;;;32.20;13.16;97251.72;6246207;28;19928;-68
2022/06/01 11:39:21;;;;;;;;;;;;;;;31.31;13.94;97233.97;6246763;28;19927;-67
2022/06/01 11:42:29;;;;;;;;;;;;;;;30.82;14.33;97233.72;6246519;28;19928;-67
2022/06/01 11:45:38;;;;;;;;;;;;;;;30.13;14.58;97237.16;6246149;28;20463;-67
2022/06/01 11:48:45;;;;;;;;;;;;;;;30.52;14.79;97232.63;6245756;28;19924;-68
2022/06/01 11:51:48;;;;;;;;;;;;;;;31.26;14.30;97245.50;6245956;28;19943;-67
2022/06/01 11:54:55;;;;;;;;;;;;;;;31.81;13.95;97247.53;6246305;28;20019;-66
2022/06/01 11:58:10;;;;;;;;;;;;;;;32.46;13.18;97240.75;6245818;28;19921;-67
2022/06/01 12:01:30;;;;;;;;;;;;;;;33.23;12.83;97249.06;6245971;28;19928;-66
2022/06/01 12:04:32;;;;;;;;;;;;;;;33.54;12.71;97245.22;6245740;28;20289;-68
2022/06/01 12:07:39;;;;;;;;;;;;;;;33.73;12.72;97249.47;6244391;28;19921;-69
2022/06/01 12:10:52;;;;;;;;;;;;;;;33.78;12.68;97256.97;6245953;28;19928;-68
2022/06/01 12:13:54;;;;;;;;;;;;;;;33.79;12.76;97253.16;6245369;28;19921;-68
2022/06/01 12:17:14;;;;;;;;;;;;;;;33.98;12.64;97251.94;6245275;28;19928;-67
2022/06/01 12:20:20;;;;;;;;;;;;;;;33.50;12.67;97247.56;6245803;28;19928;-68
2022/06/01 12:30:45;;;;;;;;;;;;;;;29.43;15.38;97248.56;6250343;28;20307;-68
2022/06/01 12:33:59;;;;;;;;;;;;;;;29.06;15.87;97256.28;6250333;28;19925;-67
2022/06/01 12:37:29;;;;;;;;;;;;;;;28.36;16.36;97249.41;6250318;28;20444;-67
2022/06/01 12:40:34;;;;;;;;;;;;;;;28.42;16.22;97259.44;6250064;28;19928;-68
2022/06/01 12:43:38;;;;;;;;;;;;;;;28.45;16.27;97263.63;6250170;28;19921;-68
2022/06/01 12:46:41;;;;;;;;;;;;;;;28.16;16.36;97260.97;6250000;28;20289;-67
2022/06/01 12:49:45;;;;;;;;;;;;;;;27.69;16.71;97259.88;6250216;28;20332;-68
2022/06/01 12:52:48;;;;;;;;;;;;;;;27.13;17.33;97259.84;6250192;28;19921;-68
2022/06/01 12:56:03;;;;;;;;;;;;;;;26.50;17.82;97258.78;6249745;28;20022;-68
2022/06/01 12:59:15;;;;;;;;;;;;;;;26.15;18.63;97258.56;6249143;28;19928;-68
2022/06/01 13:02:20;;;;;;;;;;;;;;;25.66;19.04;97262.66;6249626;28;20303;-67
2022/06/01 13:05:22;;;;;;;;;;;;;;;25.25;20.13;97262.22;6249597;28;19928;-68
2022/06/01 13:08:27;;;;;;;;;;;;;;;25.20;19.24;97264.63;6249798;28;20347;-68
2022/06/01 13:11:33;;;;;;;;;;;;;;;25.28;18.85;97261.88;6249857;28;20352;-68
2022/06/01 13:14:37;;;;;;;;;;;;;;;25.39;18.91;97269.47;6249770;28;19921;-68
2022/06/01 13:17:46;;;;;;;;;;;;;;;25.40;19.02;97267.66;6249680;28;19928;-68
2022/06/01 13:21:10;;;;;;;;;;;;;;;25.44;18.91;97268.94;6249254;28;20296;-67
2022/06/01 13:24:14;;;;;;;;;;;;;;;25.23;19.19;97266.97;6249778;28;19924;-67
2022/06/01 13:27:16;;;;;;;;;;;;;;;24.84;19.99;97270.59;6247967;28;19921;-66
2022/06/01 13:30:19;;;;;;;;;;;;;;;24.51;20.23;97265.44;6249119;28;19921;-67
2022/06/01 13:33:38;;;;;;;;;;;;;;;24.16;20.20;97264.94;6249155;28;19921;-69
2022/06/01 13:36:40;;;;;;;;;;;;;;;23.94;20.46;97265.69;6248310;28;19944;-67
2022/06/01 13:39:56;;;;;;;;;;;;;;;23.84;20.70;97263.22;6248606;28;19921;-67
2022/06/01 13:43:00;;;;;;;;;;;;;;;23.79;20.83;97267.44;6249060;28;20001;-67
2022/06/01 13:46:11;;;;;;;;;;;;;;;23.86;20.81;97268.41;6247830;28;19921;-68
2022/06/01 13:49:17;;;;;;;;;;;;;;;24.16;20.41;97264.09;6248806;28;19920;-68
2022/06/01 13:52:20;;;;;;;;;;;;;;;24.37;20.40;97271.53;6248578;28;19927;-68
2022/06/01 13:55:25;;;;;;;;;;;;;;;24.61;20.36;97279.50;6247528;28;19921;-68
2022/06/01 13:58:36;;;;;;;;;;;;;;;24.53;20.20;97284.09;6248293;28;20038;-68
2022/06/01 14:01:43;;;;;;;;;;;;;;;24.32;20.76;97273.94;6248355;28;20015;-67
2022/06/01 14:04:45;;;;;;;;;;;;;;;24.27;20.74;97281.69;6248573;28;19917;-68
2022/06/01 14:08:01;;;;;;;;;;;;;;;24.35;20.84;97284.34;6246997;28;20343;-68
2022/06/01 14:11:07;;;;;;;;;;;;;;;24.36;20.78;97288.69;6248438;28;19921;-68
2022/06/01 14:14:12;;;;;;;;;;;;;;;24.40;20.64;97292.69;6248479;28;20308;-68
2022/06/01 14:17:14;;;;;;;;;;;;;;;24.44;20.83;97294.06;6247884;28;19921;-67
2022/06/01 14:20:18;;;;;;;;;;;;;;;24.56;20.77;97295.34;6248127;28;19943;-70
2022/06/01 14:23:20;;;;;;;;;;;;;;;24.68;20.76;97294.94;6248386;28;20506;-69
2022/06/01 14:29:43;;;;;;;;;;;;;;;24.76;20.57;97292.19;6248022;28;19921;-69
2022/06/01 14:32:47;;;;;;;;;;;;;;;24.77;20.48;97301.94;6248134;28;19921;-67
2022/06/01 14:35:48;;;;;;;;;;;;;;;24.62;20.42;97302.69;6248016;28;20273;-68
2022/06/01 14:38:50;;;;;;;;;;;;;;;24.60;20.18;97299.38;6247716;28;19921;-67
2022/06/01 14:41:56;;;;;;;;;;;;;;;24.60;20.47;97302.06;6247485;28;19921;-66
2022/06/01 14:45:02;;;;;;;;;;;;;;;24.38;20.52;97305.50;6247769;28;19921;-67
2022/06/01 14:48:05;;;;;;;;;;;;;;;24.00;20.71;97313.38;6247350;28;19928;-68
2022/06/01 14:51:11;;;;;;;;;;;;;;;23.77;20.78;97312.44;6246080;28;19921;-68
2022/06/01 14:54:12;;;;;;;;;;;;;;;23.50;21.27;97317.19;6247940;28;19925;-68
2022/06/01 14:57:16;;;;;;;;;;;;;;;23.10;21.53;97321.56;6247156;28;20310;-69
2022/06/01 15:00:17;;;;;;;;;;;;;;;22.84;21.93;97314.47;6247431;28;19921;-68
2022/06/01 15:03:27;;;;;;;;;;;;;;;22.71;22.07;97311.41;6247146;28;20391;-67
2022/06/01 15:06:28;;;;;;;;;;;;;;;22.51;22.19;97320.75;6247068;28;19921;-68
2022/06/01 15:09:35;;;;;;;;;;;;;;;22.56;22.17;97318.41;6246737;28;19929;-69
2022/06/01 15:12:39;;;;;;;;;;;;;;;22.47;22.40;97322.06;6246920;28;20396;-68
2022/06/01 15:15:41;;;;;;;;;;;;;;;22.30;22.55;97330.06;6246861;28;20338;-67
2022/06/01 15:18:53;;;;;;;;;;;;;;;22.17;22.53;97329.66;6197962;28;19921;-68
2022/06/01 15:21:54;;;;;;;;;;;;;;;22.09;22.85;97334.97;6197877;28;19921;-68
2022/06/01 15:24:55;;;;;;;;;;;;;;;21.87;23.11;97331.00;6198033;28;20288;-68
2022/06/01 15:27:56;;;;;;;;;;;;;;;21.69;23.24;97341.81;6197967;28;19922;-68
2022/06/01 15:41:00;;;;;;;;;;;;;;;21.00;24.05;97349.56;6197009;28;19972;-68
2022/06/01 15:44:01;;;;;;;;;;;;;;;20.85;24.56;97345.75;6197363;28;19921;-67
2022/06/01 15:47:08;;;;;;;;;;;;;;;20.65;24.65;97353.09;6197497;28;19921;-67
2022/06/01 15:50:14;;;;;;;;;;;;;;;20.48;25.10;97351.19;6197027;28;19925;-69
2022/06/01 15:53:18;;;;;;;;;;;;;;;20.33;25.20;97356.22;6197112;28;20012;-67
2022/06/01 15:56:24;;;;;;;;;;;;;;;20.13;25.45;97356.28;6196959;28;20324;-68
2022/06/01 15:59:25;;;;;;;;;;;;;;;19.96;25.67;97351.72;6197111;28;19921;-68
2022/06/01 16:02:31;;;;;;;;;;;;;;;19.80;26.01;97351.50;6196496;28;19926;-67
2022/06/01 16:05:33;;;;;;;;;;;;;;;19.58;26.29;97361.50;6196964;28;19921;-67
2022/06/01 16:08:36;;;;;;;;;;;;;;;19.49;26.12;97370.38;6196989;28;20386;-67
2022/06/01 16:11:40;;;;;;;;;;;;;;;19.37;26.44;97366.19;6196963;28;19921;-68
2022/06/01 16:14:44;;;;;;;;;;;;;;;19.20;27.17;97376.56;6196809;28;19921;-68
2022/06/01 16:17:47;;;;;;;;;;;;;;;19.10;26.80;97380.22;6230042;28;20008;-67
2022/06/01 16:20:53;;;;;;;;;;;;;;;18.96;27.34;97384.97;6245513;28;19921;-68
2022/06/01 16:23:59;;;;;;;;;;;;;;;18.81;27.56;97384.56;6245632;28;19921;-67
2022/06/01 16:27:02;;;;;;;;;;;;;;;18.66;27.70;97383.25;6245716;28;19953;-68
2022/06/01 16:30:05;;;;;;;;;;;;;;;18.57;28.49;97395.56;6246084;28;19967;-68
2022/06/01 16:33:27;;;;;;;;;;;;;;;18.45;28.54;97406.47;6245649;28;20303;-69
2022/06/01 16:36:31;;;;;;;;;;;;;;;18.28;28.82;97400.78;6244324;28;19920;-68
2022/06/01 16:39:32;;;;;;;;;;;;;;;18.13;29.21;97412.81;6245782;28;20300;-68
2022/06/01 16:42:38;;;;;;;;;;;;;;;17.99;29.41;97413.16;6245430;28;20392;-68
2022/06/01 16:45:39;;;;;;;;;;;;;;;17.87;29.63;97415.06;6245759;28;20320;-69
2022/06/01 16:48:41;;;;;;;;;;;;;;;17.75;29.87;97419.59;6245303;28;20301;-68
2022/06/01 16:51:42;;;;;;;;;;;;;;;17.64;30.12;97423.16;6245685;28;19917;-68